Aviation WX Report

Aviation WX Report (1)

         

                                                                                                                                 GENERAL AVIATION FORECAST ST. MAARTEN

 

DATE ISSUED: April 25th, 2017           VALID TIME: 12:00 -24:00Z

AREA OF COVERAGE: TNCM TMA (Bounded by 18.25N 063.39W, 18.25N 062.51W, 17.47N 062.22W, 17.26N 062.53W, 17.36N 063.39W AND 18.25N 063.39W)

LEVELS OF COVERAGE: MSL TO FL100

 

SIG WX : VCSH

SIG. CLDS: FEW – SCT TCU 1800 – 2200 FT AND TOPS ABV FL100

SFC. VIS: 10+ KM

 
 
FCST WNDS/TEMP ALOFT: 25/18:00Z

 

LEVEL

WINDS

TEMP

0500 FT

110/20KT

+25

1000 FT

110/20KT

+23

2000 FT

110/20KT

+21

3000 FT

140/15KT

+17

FL050

160/10KT

+17

FL080

140/05KT

+12

FL100

000/00KT

+09

 
 

FZL: ABOVE FL100 SPECIAL FEATURES: NONE

TAF:

 

TNCM 251125Z 2512/2612 11012KT P6SM VCSH SCT020
  FM252300 10008KT P6SM SCT018

FORECASTER: ALBERT.

 

                                                         Meteorological Department St. Maarten

                  Airport Rd. # 69, Simpson Bay (1-721) 545-2024 or (1-721) 545-4226 Fax: (1-721) 545-2998
                                                        E-Mail: This email address is being protected from spambots. You need JavaScript enabled to view it.

 

TAFS:

TNCM 262321Z 2700/2724 09010KT P6SM FEW018
  FM271400 09012KT P6SM FEW030 SCT050
  FM272200 06010KT P6SM SCT020
TAF TAPA 262300Z 2700/2724 09012KT 9999 SCT020
TAF TFFR 262300Z 2700/2724 12010KT 9999 SCT035
  TEMPO 2700/2724 4000 SHRA SCT018TCU
TJSJ 262321Z 2700/2724 09006KT P6SM FEW026 SCT045 SCT080
  FM271400 07015KT P6SM FEW030 SCT050
  FM272300 11005KT P6SM SCT030 SCT050
TAF TXKF 262331Z 2700/2724 14016KT 9999 SCT011 BKN060
  PROB30 TEMPO 2700/2712 VCSH BKN011
TAF LPAZ 262300Z 2700/2806 06020G33KT 9999 SCT010 BKN017
  TEMPO 2700/2712 06030G42KT 5000 SHRA BKN008
  BECMG 2706/2709 SCT015 BKN035
  BECMG 2712/2714 06020KT
TEMPO 2712/2724 06025G35KT 8000 SHRA BKN015
TAF LPLA 262312Z 2700/2724 06012KT 9999 SCT014 BKN025
  TEMPO 2700/2724 06015G25KT 7000 -RA SCT009 BKN014
TAF LPPT 262300Z 2700/2806 31005KT CAVOK
  BECMG 2705/2708 05010KT
  BECMG 2715/2717 34012KT
  BECMG 2722/2724 05012KT
17.36N 63.40W and 18.30N 63.40W).
Levels of Coverage: MSL to FL100.
SIG WX: ISOL SHRA.
SIG CLDS: FEW TCU 1000 - 1500FT AND TOPS ABV FL100.
SCT/ BKN LYR SC/AC 2000 - 3500FT AND TOPS ABV FL100.
SFC VIS: 10+ KM, 3 - 7 KM IN SHRA.
FCST WNDS/TEMP ALOFT: 14/ 18:00Z
0500 FT.. 200/10KT +26 FL050.....220/10KT +16
1000 FT.. 200/10KT +24 FL080.....220/05KT +11
2000 FT.. 210/15KT +22 FL100.....200/10KT +08
3000 FT.. 210/15KT +19
FZL: ABV FL100.
SPECIAL FEATURES:
NONE.
TAFS:
TAF TNCM 141200Z 1412/1512 14012KT P6SM VCSH BKN018 BKN035
FM141800 21008KT P6SM VCSH SCT022 SCT050=
Forecaster: DJF.

Save

Save

Save

Save

Save

Save

Save

Save

Save

Save

Save

Save

Save

Save

Save

Save

Save

Save

Save

Save

Save

Save

Save

Save

Save

Save

Save

Save

Save

Save

Save

Save

Save

Save

Save

Save

Save

Save

Save

Save

Save

Save

Save

Save

Save

Save

Save

Save

Save

Save

Save

Save

Save

Save

Save

Save

Save

Save

Save

Save

Save

Save

Save

Save

Save

Save

Save

Save

Save

Save

Save

Save

Save

Save

Save

Save

Save

Save

Save

Save

Save

Save

Save

Save

Save

Save

Save

Save

Save

Save

Save

Save

Save

Save

Save

Save

Save

Save

Save

Save

Save

Save

Save

Save

Save

Save

Save

Save

Save

Save

Save

Save

Save

Save

Save

Save

Save

Save

Save

Save

Save

Save

Save

Save

Save

Save

Save

Save

Save

Save

Save

Save

Save

Save

Save

Save

Save

Save

Save

International News

Go to top